John G — WDF2677 — position and weather

sailwx.info

Track history (hours):
 
Tides and Currents Weather Stations Pressure Air Temp Water Temp Dewpoint Dewpoint Depression Visibility Wind Speed Wind Dir Waves Ship Positions

John G

Owner: Marquette Transportation Company Offshore LLC, Jefferson, LA. More information available from US FCC via Universal Licensing System and Coast Guard Vessel Documentation Center.

Last reported at 2015-Mar-27 04:11 UTC. Time now 2015-Mar-30 13:00 UTC.
Position N 29°53' W 090°05'.

Length 30 m; draft 3.3 m.

Type: Towing. MMSI: 367009680.

Date/timePositionNaut miles runAvg speedWind from/ knotsBaromVisibWave heightAir tempDewpointWater temp
2015-Mar-27 04:11N 29°53' W 090°05'0 0.0
2015-Mar-27 03:33N 29°53' W 090°05'0 0.0
2015-Mar-27 02:32N 29°53' W 090°05'0 0.0
2015-Mar-27 01:32N 29°53' W 090°05'0 0.0
2015-Mar-27 00:33N 29°53' W 090°05'0 0.1
2015-Mar-26 23:32N 29°53' W 090°05'3 2.6
2015-Mar-26 22:27N 29°51' W 090°04'2 1.8
2015-Mar-26 21:09N 29°51' W 090°01'4 2.5
2015-Mar-26 19:26N 29°55' W 089°58'2 2.8
2015-Mar-26 18:33N 29°56' W 090°00'0 0.0
2015-Mar-26 17:34N 29°56' W 090°00'0 0.0
2015-Mar-26 16:32N 29°56' W 090°00'0 0.0
2015-Mar-26 15:25N 29°56' W 090°00'0 0.0
2015-Mar-26 14:32N 29°56' W 090°00'0 0.0
2015-Mar-26 13:33N 29°56' W 090°00'0 0.0
2015-Mar-26 12:33N 29°56' W 090°00'0 0.0
2015-Mar-26 10:30N 29°56' W 090°00'0 0.0
2015-Mar-26 09:05N 29°56' W 090°00'0 0.0
2015-Mar-26 08:28N 29°56' W 090°00'0 0.0
2015-Mar-26 07:29N 29°56' W 090°00'0 0.0
2015-Mar-26 06:33N 29°56' W 090°00'0 0.0
2015-Mar-26 05:32N 29°56' W 090°00'0 0.0
2015-Mar-26 04:32N 29°56' W 090°00'0 0.0
2015-Mar-26 03:31N 29°56' W 090°00'0 0.0
2015-Mar-26 02:29N 29°56' W 090°00'0 0.0
2015-Mar-26 01:33N 29°56' W 090°00'3 2.6
2015-Mar-26 00:33N 29°56' W 090°03'  
2015-Mar-21 13:33N 29°56' W 089°60'0 0.0
2015-Mar-21 12:25N 29°56' W 089°60'2 0.1
2015-Mar-20 16:11N 29°55' W 089°57'0 0.0
2015-Mar-20 15:22N 29°55' W 089°57'0 0.0
2015-Mar-20 13:31N 29°55' W 089°57'0 0.0
2015-Mar-20 12:33N 29°55' W 089°57'0 0.0
2015-Mar-20 11:32N 29°55' W 089°57'0 0.0
2015-Mar-20 10:33N 29°55' W 089°57'0 0.0
2015-Mar-20 09:31N 29°55' W 089°57'0 0.0
2015-Mar-20 08:31N 29°55' W 089°57'0 0.0
2015-Mar-20 07:33N 29°55' W 089°57'0 0.3
2015-Mar-20 06:33N 29°56' W 089°57'0 0.0
2015-Mar-20 05:31N 29°56' W 089°57'0 0.0
2015-Mar-20 04:24N 29°56' W 089°57'0 0.0
2015-Mar-20 03:29N 29°56' W 089°57'0 0.0
2015-Mar-20 02:25N 29°56' W 089°57'0 0.0
2015-Mar-20 01:11N 29°56' W 089°57'0 0.0
2015-Mar-20 00:22N 29°56' W 089°57'  
2015-Mar-17 19:22N 29°57' W 090°01'6 5.9
2015-Mar-17 18:19N 29°56' W 090°08'  
Track history (hours):
 
Tides and Currents Weather Stations Pressure Air Temp Water Temp Dewpoint Dewpoint Depression Visibility Wind Speed Wind Dir Waves Ship Positions

John G

Owner: Marquette Transportation Company Offshore LLC, Jefferson, LA. More information available from US FCC via Universal Licensing System and Coast Guard Vessel Documentation Center.

Last reported at 2015-Mar-27 04:11 UTC. Time now 2015-Mar-30 13:00 UTC.
Position N 29°53' W 090°05'.

Length 30 m; draft 3.3 m.

Type: Towing. MMSI: 367009680.

Date/timePositionNaut miles runAvg speedWind from/ knotsBaromVisibWave heightAir tempDewpointWater temp
2015-Mar-27 04:11N 29°53' W 090°05'0 0.0
2015-Mar-27 03:33N 29°53' W 090°05'0 0.0
2015-Mar-27 02:32N 29°53' W 090°05'0 0.0
2015-Mar-27 01:32N 29°53' W 090°05'0 0.0
2015-Mar-27 00:33N 29°53' W 090°05'0 0.1
2015-Mar-26 23:32N 29°53' W 090°05'3 2.6
2015-Mar-26 22:27N 29°51' W 090°04'2 1.8
2015-Mar-26 21:09N 29°51' W 090°01'4 2.5
2015-Mar-26 19:26N 29°55' W 089°58'2 2.8
2015-Mar-26 18:33N 29°56' W 090°00'0 0.0
2015-Mar-26 17:34N 29°56' W 090°00'0 0.0
2015-Mar-26 16:32N 29°56' W 090°00'0 0.0
2015-Mar-26 15:25N 29°56' W 090°00'0 0.0
2015-Mar-26 14:32N 29°56' W 090°00'0 0.0
2015-Mar-26 13:33N 29°56' W 090°00'0 0.0
2015-Mar-26 12:33N 29°56' W 090°00'0 0.0
2015-Mar-26 10:30N 29°56' W 090°00'0 0.0
2015-Mar-26 09:05N 29°56' W 090°00'0 0.0
2015-Mar-26 08:28N 29°56' W 090°00'0 0.0
2015-Mar-26 07:29N 29°56' W 090°00'0 0.0
2015-Mar-26 06:33N 29°56' W 090°00'0 0.0
2015-Mar-26 05:32N 29°56' W 090°00'0 0.0
2015-Mar-26 04:32N 29°56' W 090°00'0 0.0
2015-Mar-26 03:31N 29°56' W 090°00'0 0.0
2015-Mar-26 02:29N 29°56' W 090°00'0 0.0
2015-Mar-26 01:33N 29°56' W 090°00'3 2.6
2015-Mar-26 00:33N 29°56' W 090°03'  
2015-Mar-21 13:33N 29°56' W 089°60'0 0.0
2015-Mar-21 12:25N 29°56' W 089°60'2 0.1
2015-Mar-20 16:11N 29°55' W 089°57'0 0.0
2015-Mar-20 15:22N 29°55' W 089°57'0 0.0
2015-Mar-20 13:31N 29°55' W 089°57'0 0.0
2015-Mar-20 12:33N 29°55' W 089°57'0 0.0
2015-Mar-20 11:32N 29°55' W 089°57'0 0.0
2015-Mar-20 10:33N 29°55' W 089°57'0 0.0
2015-Mar-20 09:31N 29°55' W 089°57'0 0.0
2015-Mar-20 08:31N 29°55' W 089°57'0 0.0
2015-Mar-20 07:33N 29°55' W 089°57'0 0.3
2015-Mar-20 06:33N 29°56' W 089°57'0 0.0
2015-Mar-20 05:31N 29°56' W 089°57'0 0.0
2015-Mar-20 04:24N 29°56' W 089°57'0 0.0
2015-Mar-20 03:29N 29°56' W 089°57'0 0.0
2015-Mar-20 02:25N 29°56' W 089°57'0 0.0
2015-Mar-20 01:11N 29°56' W 089°57'0 0.0
2015-Mar-20 00:22N 29°56' W 089°57'  
2015-Mar-17 19:22N 29°57' W 090°01'6 5.9
2015-Mar-17 18:19N 29°56' W 090°08'  

Dump ship's entire track history